Time;durP1;ratioP1;P1;durP2;ratioP2;P2;SDS_P1;SDS_P2;PMS_P1;PMS_P2;Temp;Humidity;BMP_temperature;BMP_pressure;BME280_temperature;BME280_humidity;BME280_pressure;Samples;Min_cycle;Max_cycle;Signal;HPM_P1;HPM_P2
2022/09/14 00:00:06;;;;;;;6.03;2.80;;;;;;;18.64;70.31;100750.44;6128974;23;20084;-94
2022/09/14 00:02:31;;;;;;;5.15;3.00;;;;;;;18.59;71.50;100758.81;6126576;23;20009;-94
2022/09/14 00:04:58;;;;;;;12.07;3.38;;;;;;;18.66;71.75;100751.19;6127173;23;20014;-95
2022/09/14 00:07:25;;;;;;;4.57;2.58;;;;;;;18.57;71.32;100750.91;6129545;23;20012;-94
2022/09/14 00:09:51;;;;;;;6.80;3.03;;;;;;;18.50;72.53;100749.66;6137142;23;20002;-95
2022/09/14 00:12:29;;;;;;;6.63;2.80;;;;;;;18.41;71.41;100733.41;6140986;23;20166;-94
2022/09/14 00:14:54;;;;;;;9.65;3.40;;;;;;;18.45;70.97;100726.88;6141301;23;20455;-94
2022/09/14 00:17:20;;;;;;;8.35;2.42;;;;;;;18.47;70.71;100731.16;6132945;23;20029;-95
2022/09/14 00:19:46;;;;;;;7.75;3.20;;;;;;;18.23;71.27;100699.06;6131571;23;20445;-95
2022/09/14 00:22:12;;;;;;;7.03;2.53;;;;;;;18.50;70.58;100738.09;6135236;23;20025;-95
2022/09/14 00:24:41;;;;;;;9.60;2.70;;;;;;;18.22;71.03;100694.63;6139325;23;20077;-95
2022/09/14 00:27:07;;;;;;;6.70;2.60;;;;;;;18.30;71.05;100700.28;6088188;23;20018;-95
2022/09/14 00:29:35;;;;;;;5.70;3.40;;;;;;;18.32;71.98;100692.97;6085281;23;20438;-94
2022/09/14 00:32:06;;;;;;;5.68;2.40;;;;;;;18.33;71.01;100685.84;5989540;23;20011;-96
2022/09/14 00:35:03;;;;;;;6.68;2.50;;;;;;;18.44;69.42;100687.69;6010096;23;20011;-94
2022/09/14 00:37:48;;;;;;;4.55;2.22;;;;;;;18.42;69.89;100701.19;5981198;23;20075;-94
2022/09/14 00:40:18;;;;;;;9.02;2.75;;;;;;;18.32;69.56;100681.41;5996831;23;20020;-95
2022/09/14 00:42:51;;;;;;;9.18;2.47;;;;;;;18.22;69.83;100677.72;5953699;24;20040;-95
2022/09/14 00:45:27;;;;;;;6.07;2.58;;;;;;;18.17;70.68;100683.44;5968870;24;20582;-96
2022/09/14 00:47:53;;;;;;;4.10;2.42;;;;;;;18.17;70.55;100666.53;5987815;24;20016;-94
2022/09/14 00:50:19;;;;;;;5.68;2.50;;;;;;;18.42;70.22;100711.91;5982628;24;20012;-95
2022/09/14 00:52:48;;;;;;;6.70;2.38;;;;;;;18.23;70.56;100672.28;5985422;24;20023;-94
2022/09/14 00:55:20;;;;;;;6.78;2.28;;;;;;;18.24;70.79;100663.28;5990789;24;20012;-94
2022/09/14 00:57:52;;;;;;;5.68;2.33;;;;;;;18.28;70.83;100680.81;5977484;23;20465;-96
2022/09/14 01:00:22;;;;;;;3.50;2.22;;;;;;;18.33;70.71;100677.81;6015452;23;20004;-95
2022/09/14 01:02:49;;;;;;;5.30;2.63;;;;;;;18.19;70.09;100649.41;5994142;23;20011;-95
2022/09/14 01:05:20;;;;;;;8.93;2.63;;;;;;;18.01;70.36;100640.91;5989173;23;20087;-94
2022/09/14 01:08:10;;;;;;;5.17;2.43;;;;;;;18.13;70.15;100671.25;5990158;23;20031;-95
2022/09/14 01:10:56;;;;;;;4.97;2.33;;;;;;;18.00;70.45;100663.28;6011502;23;20015;-94
2022/09/14 01:13:44;;;;;;;6.03;2.65;;;;;;;17.96;70.12;100647.59;6020110;23;20007;-95
2022/09/14 01:16:18;;;;;;;6.22;2.67;;;;;;;17.91;71.58;100634.56;6059011;23;20158;-94
2022/09/14 01:18:49;;;;;;;7.50;2.65;;;;;;;18.08;71.42;100662.72;6054072;23;20007;-94
2022/09/14 01:21:46;;;;;;;4.50;2.33;;;;;;;18.00;70.89;100633.88;6058940;23;20007;-93
2022/09/14 01:24:25;;;;;;;5.50;2.20;;;;;;;18.11;71.53;100670.50;6084301;23;20025;-94
2022/09/14 01:27:32;;;;;;;6.53;2.13;;;;;;;18.06;70.20;100659.31;6079002;23;20007;-95
2022/09/14 04:27:17;;;;;;;3.50;2.15;;;;;;;16.59;73.80;100546.91;6136947;23;20029;-94
2022/09/14 04:29:50;;;;;;;5.13;1.90;;;;;;;16.56;73.01;100547.16;6141294;23;19994;-95
2022/09/14 04:32:24;;;;;;;8.03;2.27;;;;;;;16.71;73.51;100583.44;6139692;23;20101;-94
2022/09/14 04:34:57;;;;;;;6.78;2.28;;;;;;;16.53;74.61;100550.88;6139111;23;20305;-94
2022/09/14 04:37:26;;;;;;;4.82;2.10;;;;;;;16.41;74.40;100530.38;6134460;23;20010;-95
2022/09/14 04:39:53;;;;;;;5.78;2.10;;;;;;;16.50;74.15;100559.09;6141579;23;20006;-94
2022/09/14 04:42:22;;;;;;;4.72;2.38;;;;;;;16.38;73.89;100559.09;6136116;23;20017;-95
2022/09/14 04:44:48;;;;;;;5.90;1.92;;;;;;;16.12;74.68;100529.72;6107372;23;20354;-96
2022/09/14 04:47:13;;;;;;;4.82;2.20;;;;;;;15.99;74.90;100528.84;6133743;23;20020;-95
2022/09/14 04:49:39;;;;;;;5.18;1.90;;;;;;;16.06;75.71;100555.00;6132549;23;20006;-95
2022/09/14 04:52:07;;;;;;;6.20;2.03;;;;;;;16.01;75.25;100557.13;6123800;23;20307;-94
2022/09/14 04:54:32;;;;;;;6.47;2.35;;;;;;;16.07;75.63;100561.19;6124333;23;20002;-95
2022/09/14 04:56:57;;;;;;;4.68;2.03;;;;;;;15.90;75.47;100525.00;6125999;23;20002;-95
2022/09/14 04:59:23;;;;;;;4.78;2.22;;;;;;;15.93;75.85;100527.44;6124079;23;20002;-96
2022/09/14 05:01:49;;;;;;;6.90;2.08;;;;;;;15.92;75.79;100525.75;6124895;23;20012;-96
2022/09/14 05:04:15;;;;;;;5.50;2.30;;;;;;;15.99;75.20;100527.06;6120841;23;20006;-96
2022/09/14 05:06:42;;;;;;;6.03;2.10;;;;;;;16.03;76.11;100522.34;6122622;23;20066;-96
2022/09/14 05:09:12;;;;;;;5.50;2.08;;;;;;;15.88;75.25;100504.72;6123457;23;20370;-96
2022/09/14 05:11:38;;;;;;;4.47;2.22;;;;;;;16.01;75.33;100537.59;6127016;23;20418;-95
2022/09/14 05:14:04;;;;;;;5.07;2.60;;;;;;;16.04;75.32;100522.25;6121838;23;20088;-94
2022/09/14 05:16:35;;;;;;;5.90;2.17;;;;;;;16.02;75.69;100517.97;6117021;23;20008;-95
2022/09/14 05:19:03;;;;;;;3.65;1.92;;;;;;;15.93;76.52;100527.44;6091808;23;20013;-94
2022/09/14 05:21:31;;;;;;;3.70;1.75;;;;;;;15.87;76.66;100527.88;6092948;23;20012;-94
2022/09/14 05:23:59;;;;;;;3.35;1.83;;;;;;;15.69;76.82;100519.28;6091373;23;20010;-95
2022/09/14 05:26:27;;;;;;;7.13;2.30;;;;;;;15.81;77.69;100545.13;6093984;23;20350;-95
2022/09/14 05:28:55;;;;;;;6.82;2.28;;;;;;;15.88;76.49;100534.91;6092121;23;20542;-94
2022/09/14 05:31:22;;;;;;;6.38;2.33;;;;;;;15.79;76.91;100524.84;6098130;23;20009;-94
2022/09/14 05:33:48;;;;;;;3.78;2.22;;;;;;;15.89;77.11;100536.59;6096128;23;20037;-95
2022/09/14 05:36:15;;;;;;;9.27;2.53;;;;;;;16.10;76.21;100544.97;6093515;23;20027;-94
2022/09/14 05:38:40;;;;;;;4.30;2.08;;;;;;;16.08;76.75;100537.06;6072250;23;20045;-94
2022/09/14 05:41:09;;;;;;;4.38;2.28;;;;;;;16.13;76.79;100526.09;6075647;23;20066;-95
2022/09/14 05:43:34;;;;;;;6.80;2.63;;;;;;;16.28;76.02;100538.38;6091405;23;20006;-93
2022/09/14 05:46:19;;;;;;;6.93;2.70;;;;;;;16.30;76.07;100536.47;6089914;23;20478;-95
2022/09/14 05:48:45;;;;;;;7.57;2.58;;;;;;;16.46;75.47;100559.41;6067481;23;20343;-95
2022/09/14 05:51:15;;;;;;;6.85;2.50;;;;;;;16.39;74.78;100550.97;6092224;23;20029;-96
2022/09/14 05:53:40;;;;;;;9.05;2.58;;;;;;;16.40;74.40;100552.69;6089268;23;20150;-94
2022/09/14 05:56:08;;;;;;;6.68;2.30;;;;;;;16.39;74.90;100555.47;6093072;23;20408;-95
2022/09/14 05:58:35;;;;;;;3.95;2.88;;;;;;;16.39;76.29;100555.47;6091734;23;20013;-93
2022/09/14 06:01:12;;;;;;;7.65;2.60;;;;;;;16.49;75.73;100564.53;6066301;23;20173;-95
2022/09/14 06:03:38;;;;;;;5.10;2.50;;;;;;;16.43;75.26;100557.81;6090748;23;20014;-94
2022/09/14 06:06:05;;;;;;;11.98;2.67;;;;;;;16.51;75.80;100562.63;6092371;23;20010;-96
2022/09/14 06:08:31;;;;;;;3.90;2.67;;;;;;;16.46;75.92;100565.63;6092102;23;20009;-94
2022/09/14 06:11:02;;;;;;;5.18;2.55;;;;;;;16.36;75.84;100555.66;6090595;23;20006;-95
2022/09/14 06:13:27;;;;;;;3.85;1.85;;;;;;;16.41;75.71;100572.22;6090404;23;20010;-96
2022/09/14 06:15:52;;;;;;;4.95;2.60;;;;;;;16.41;75.94;100562.38;6066233;23;20004;-95
2022/09/14 06:18:18;;;;;;;5.28;2.60;;;;;;;16.45;75.48;100574.56;6067784;23;20328;-96
2022/09/14 06:20:50;;;;;;;7.85;2.60;;;;;;;16.53;75.28;100574.03;6071096;23;20070;-95
2022/09/14 06:23:16;;;;;;;4.13;2.45;;;;;;;16.52;76.15;100569.69;6070550;23;20017;-95
2022/09/14 06:25:43;;;;;;;6.07;2.85;;;;;;;16.49;75.89;100581.41;6070413;23;20010;-94
2022/09/14 06:28:08;;;;;;;6.35;2.95;;;;;;;16.37;75.61;100573.38;6045243;23;20469;-94
2022/09/14 06:30:34;;;;;;;7.88;2.40;;;;;;;16.33;76.46;100573.59;6065133;23;20007;-93
2022/09/14 06:32:59;;;;;;;9.82;2.95;;;;;;;16.29;76.14;100566.78;6069873;23;20300;-94
2022/09/14 06:35:24;;;;;;;6.30;2.60;;;;;;;16.31;76.20;100564.00;6077314;23;20038;-95
2022/09/14 06:37:51;;;;;;;5.65;2.78;;;;;;;16.28;76.32;100575.75;6075707;23;20018;-94
2022/09/14 06:40:16;;;;;;;4.45;2.40;;;;;;;16.24;76.39;100563.56;6101073;23;20081;-94
2022/09/14 06:42:42;;;;;;;4.75;2.80;;;;;;;16.16;76.97;100563.22;6067215;23;20030;-96
2022/09/14 06:45:07;;;;;;;5.13;2.50;;;;;;;15.97;77.34;100554.75;6068874;23;20062;-93
2022/09/14 06:47:33;;;;;;;8.43;3.00;;;;;;;15.97;77.27;100547.63;6068758;23;20014;-95
2022/09/14 06:49:58;;;;;;;4.25;3.10;;;;;;;15.99;77.20;100534.16;6069608;23;20383;-94
2022/09/14 06:52:23;;;;;;;7.05;2.85;;;;;;;16.07;77.36;100553.19;6069785;23;20003;-95
2022/09/14 06:54:52;;;;;;;5.50;2.45;;;;;;;16.10;77.39;100547.66;6067629;23;20007;-95
2022/09/14 06:57:17;;;;;;;6.60;3.03;;;;;;;16.12;77.20;100542.19;6067788;23;20080;-95
2022/09/14 06:59:43;;;;;;;6.90;3.15;;;;;;;16.10;76.86;100536.13;6068382;23;20034;-95
2022/09/14 07:02:12;;;;;;;6.50;2.97;;;;;;;16.06;77.49;100543.47;6066316;23;20008;-93
2022/09/14 07:04:37;;;;;;;4.93;3.13;;;;;;;16.13;76.74;100552.75;6068208;23;20010;-95
2022/09/14 07:07:02;;;;;;;5.45;2.70;;;;;;;16.20;76.99;100537.22;6094442;23;20081;-93
2022/09/14 07:09:28;;;;;;;6.38;2.92;;;;;;;16.25;77.04;100535.94;6067387;23;20022;-94
2022/09/14 07:11:53;;;;;;;5.28;2.63;;;;;;;16.14;76.89;100527.81;6066336;23;20640;-94
2022/09/14 07:14:19;;;;;;;4.47;2.72;;;;;;;16.23;76.50;100537.00;6067768;23;20036;-95
2022/09/14 07:16:44;;;;;;;7.13;2.90;;;;;;;16.26;76.99;100542.97;6093473;23;20065;-94
2022/09/14 07:19:12;;;;;;;5.45;3.15;;;;;;;16.25;76.89;100543.06;6066313;23;20013;-94
2022/09/14 07:21:38;;;;;;;3.35;2.55;;;;;;;16.19;76.63;100532.84;6066859;23;20014;-94
2022/09/14 07:24:03;;;;;;;4.38;3.03;;;;;;;16.10;77.24;100517.47;6066184;23;20010;-93
2022/09/14 07:26:40;;;;;;;7.13;2.85;;;;;;;16.11;77.51;100532.50;6066607;23;20615;-93
2022/09/14 07:29:10;;;;;;;6.95;3.25;;;;;;;16.04;78.02;100524.03;6091980;23;20022;-94
2022/09/14 07:31:41;;;;;;;6.70;3.20;;;;;;;15.95;77.52;100514.88;6066121;23;20033;-94
2022/09/14 07:34:08;;;;;;;8.98;3.00;;;;;;;16.01;76.44;100529.59;6066097;23;20407;-95
2022/09/14 07:36:35;;;;;;;5.57;2.95;;;;;;;16.08;77.30;100534.41;6068175;23;20002;-94
2022/09/14 07:39:01;;;;;;;4.80;2.88;;;;;;;16.06;77.67;100527.47;6068208;23;20391;-93
2022/09/14 07:41:29;;;;;;;5.90;3.42;;;;;;;16.17;77.64;100535.59;6093201;23;20066;-95
2022/09/14 07:43:58;;;;;;;9.23;3.53;;;;;;;16.12;77.86;100524.38;6066796;23;20038;-95
2022/09/14 07:46:25;;;;;;;6.18;3.22;;;;;;;16.26;77.25;100539.44;6066410;23;20435;-93
2022/09/14 07:48:56;;;;;;;7.28;3.60;;;;;;;16.35;77.57;100524.63;6066863;23;20038;-94
2022/09/14 07:51:21;;;;;;;5.45;3.45;;;;;;;16.49;77.57;100535.19;6092804;23;20386;-94
2022/09/14 07:53:46;;;;;;;6.47;3.40;;;;;;;16.61;76.95;100536.16;6092677;23;20018;-94
2022/09/14 07:56:15;;;;;;;5.93;3.78;;;;;;;16.70;77.58;100533.69;6068455;23;20044;-93
2022/09/14 07:58:41;;;;;;;5.50;3.75;;;;;;;16.60;77.32;100513.97;6066859;23;20003;-93
2022/09/14 08:01:10;;;;;;;6.40;3.25;;;;;;;16.71;75.84;100516.72;6067358;23;20029;-94
2022/09/14 08:03:37;;;;;;;7.63;3.53;;;;;;;16.81;76.52;100523.13;6067711;23;20009;-94
2022/09/14 08:06:09;;;;;;;5.85;4.10;;;;;;;16.59;75.76;100505.06;6069022;23;20398;-95
2022/09/14 08:08:35;;;;;;;;;;;;;;;16.89;74.71;100533.28;6067670;23;20435;-94
2022/09/14 08:11:07;;;;;;;10.10;4.53;;;;;;;16.80;76.54;100531.25;6067006;23;19949;-94
2022/09/14 08:13:33;;;;;;;5.72;4.63;;;;;;;16.87;75.13;100529.00;6065264;23;20362;-95
2022/09/14 08:15:59;;;;;;;8.43;5.72;;;;;;;16.85;75.05;100509.56;6067345;23;20006;-95
2022/09/14 08:18:25;;;;;;;8.07;5.63;;;;;;;16.85;76.73;100520.25;6067630;23;20029;-94
2022/09/14 08:20:51;;;;;;;8.40;5.50;;;;;;;16.76;76.57;100511.06;6068356;23;20006;-95
2022/09/14 08:23:16;;;;;;;10.57;5.50;;;;;;;16.83;76.52;100518.56;6066765;23;20081;-95
2022/09/14 08:25:42;;;;;;;10.43;6.30;;;;;;;16.93;76.67;100512.56;6067353;23;20018;-95
2022/09/14 08:28:07;;;;;;;9.27;5.50;;;;;;;16.94;75.63;100503.56;6067410;23;20050;-94
2022/09/14 08:30:32;;;;;;;5.43;4.57;;;;;;;17.13;75.18;100516.44;6069544;23;20002;-94
2022/09/14 08:33:02;;;;;;;10.65;5.63;;;;;;;17.08;75.94;100503.41;6070856;23;19998;-95
2022/09/14 08:35:27;;;;;;;8.82;5.68;;;;;;;17.02;75.73;100504.72;6072946;23;20006;-95
2022/09/14 08:37:53;;;;;;;7.20;5.55;;;;;;;16.90;76.42;100489.56;6070613;23;20145;-94
2022/09/14 08:40:18;;;;;;;9.00;5.53;;;;;;;17.14;75.73;100519.00;6068720;23;20471;-94
2022/09/14 08:42:45;;;;;;;7.45;4.70;;;;;;;17.15;75.04;100520.69;6066845;23;20010;-95
2022/09/14 08:45:15;;;;;;;6.65;4.82;;;;;;;17.17;74.78;100531.28;6067821;23;20363;-94
2022/09/14 08:47:42;;;;;;;9.38;5.22;;;;;;;17.06;75.42;100513.34;6069559;23;20014;-95
2022/09/14 08:50:20;;;;;;;8.43;5.28;;;;;;;17.16;75.07;100514.41;6071415;23;20015;-95
2022/09/14 08:52:48;;;;;;;9.35;5.07;;;;;;;17.27;75.90;100529.66;6044599;23;20017;-94
2022/09/14 08:55:36;;;;;;;11.52;5.40;;;;;;;17.26;75.65;100535.97;6068135;23;20089;-93
2022/09/14 08:58:39;;;;;;;9.20;5.00;;;;;;;17.31;74.87;100536.47;6092296;23;20006;-93
2022/09/14 09:01:16;;;;;;;;;;;;;;;17.40;73.99;100543.81;6068036;23;20438;-95
2022/09/14 09:04:08;;;;;;;8.55;4.80;;;;;;;17.40;74.54;100541.16;6065697;23;20472;-92
2022/09/14 09:06:48;;;;;;;8.07;4.90;;;;;;;17.49;74.80;100547.66;6067367;23;20034;-93
2022/09/14 09:09:44;;;;;;;8.15;5.15;;;;;;;17.56;74.31;100535.50;6065895;23;20010;-93
2022/09/14 09:12:22;;;;;;;10.75;4.60;;;;;;;17.55;74.37;100544.50;6067188;23;20010;-93
2022/09/14 09:14:50;;;;;;;9.48;4.85;;;;;;;17.52;74.74;100537.56;6065873;23;20010;-95
2022/09/14 09:17:29;;;;;;;7.22;4.10;;;;;;;17.52;74.19;100531.34;6090462;23;20006;-93
2022/09/14 09:20:10;;;;;;;13.77;5.30;;;;;;;17.53;74.72;100531.25;6065679;23;20511;-95
2022/09/14 09:22:41;;;;;;;7.68;5.07;;;;;;;17.49;74.94;100520.91;6065825;23;20014;-94
2022/09/14 09:25:17;;;;;;;10.05;4.90;;;;;;;17.54;74.08;100529.44;6066183;23;20002;-94
2022/09/14 09:27:42;;;;;;;6.00;4.78;;;;;;;17.59;74.40;100527.28;6067578;23;20018;-93
2022/09/14 09:30:12;;;;;;;5.40;3.70;;;;;;;17.62;74.18;100528.84;6064268;23;20038;-95
2022/09/14 09:32:39;;;;;;;7.47;5.35;;;;;;;17.43;74.29;100527.53;6064044;23;20017;-94
2022/09/14 09:35:05;;;;;;;9.23;5.43;;;;;;;17.30;74.97;100527.63;6092076;23;20010;-93
2022/09/14 09:37:36;;;;;;;8.32;5.47;;;;;;;17.24;73.99;100525.38;6066710;23;20014;-94
2022/09/14 09:40:02;;;;;;;8.55;4.65;;;;;;;17.26;75.05;100531.47;6066014;23;20643;-95
2022/09/14 09:42:27;;;;;;;8.45;4.60;;;;;;;17.32;75.16;100525.66;6065512;23;20208;-93
2022/09/14 09:44:54;;;;;;;6.85;4.45;;;;;;;17.44;75.48;100523.94;6065658;23;20057;-94
2022/09/14 09:47:36;;;;;;;11.00;5.18;;;;;;;17.42;75.10;100519.66;6090756;23;20402;-93
2022/09/14 09:50:14;;;;;;;6.38;4.50;;;;;;;17.49;75.28;100524.44;6066459;23;20013;-93
2022/09/14 09:52:56;;;;;;;9.85;5.30;;;;;;;17.56;75.16;100523.00;6065518;23;20045;-94
2022/09/14 09:55:25;;;;;;;10.88;5.63;;;;;;;17.45;74.70;100503.41;6065487;23;20383;-93
2022/09/14 09:57:52;;;;;;;8.57;5.10;;;;;;;17.60;75.25;100526.31;6066032;23;20006;-93
2022/09/14 10:00:28;;;;;;;8.68;5.75;;;;;;;17.60;75.44;100527.16;6065816;23;20053;-93
2022/09/14 10:02:55;;;;;;;6.63;5.30;;;;;;;17.58;75.37;100526.44;6064739;23;20387;-92
2022/09/14 10:05:27;;;;;;;10.40;5.00;;;;;;;17.66;74.67;100533.84;6065841;23;20006;-92
2022/09/14 10:08:05;;;;;;;8.15;5.57;;;;;;;17.52;74.88;100523.34;6065753;23;20017;-94
2022/09/14 10:10:33;;;;;;;8.20;5.70;;;;;;;17.58;75.22;100530.94;6066259;23;20342;-93
2022/09/14 10:12:59;;;;;;;8.85;5.88;;;;;;;17.71;74.92;100537.03;6089528;23;20007;-93
2022/09/14 10:15:28;;;;;;;8.40;5.97;;;;;;;17.68;74.80;100528.41;6063079;23;20006;-93
2022/09/14 10:17:54;;;;;;;8.65;6.00;;;;;;;17.68;74.45;100523.06;6089247;23;20006;-92
2022/09/14 10:20:22;;;;;;;10.57;5.75;;;;;;;17.87;74.22;100525.25;6065228;23;20010;-93
2022/09/14 10:22:48;;;;;;;10.82;6.50;;;;;;;18.03;74.43;100525.75;6064765;23;20085;-92
2022/09/14 10:25:13;;;;;;;10.25;6.07;;;;;;;18.19;73.07;100533.50;6065335;23;20367;-93
2022/09/14 10:27:44;;;;;;;8.47;6.50;;;;;;;18.08;74.23;100526.25;6088638;23;20779;-93
2022/09/14 10:30:20;;;;;;;8.07;5.70;;;;;;;18.00;71.99;100526.00;6088332;23;20726;-92
2022/09/14 10:33:01;;;;;;;7.68;5.72;;;;;;;17.94;73.11;100527.31;6089280;23;20439;-93
2022/09/14 10:35:57;;;;;;;6.38;5.28;;;;;;;17.91;74.22;100530.25;6064961;23;20069;-92
2022/09/14 10:38:33;;;;;;;9.32;5.93;;;;;;;17.84;74.00;100523.63;6063479;23;20100;-92
2022/09/14 10:41:21;;;;;;;12.00;6.55;;;;;;;17.60;75.10;100524.47;6064488;23;20003;-93
2022/09/14 10:43:55;;;;;;;10.40;6.18;;;;;;;17.57;75.66;100516.69;6064491;23;20368;-92
2022/09/14 10:46:43;;;;;;;9.27;5.95;;;;;;;17.55;75.14;100515.94;6065301;23;20011;-93
2022/09/14 10:49:20;;;;;;;11.63;6.10;;;;;;;17.57;75.07;100523.84;6093416;23;20240;-93
2022/09/14 10:52:13;;;;;;;8.55;6.45;;;;;;;17.41;74.94;100513.44;6089305;23;20018;-93
2022/09/14 10:54:57;;;;;;;10.75;6.50;;;;;;;17.49;76.14;100527.09;6065032;23;20030;-93
2022/09/14 10:57:25;;;;;;;8.93;6.20;;;;;;;17.49;76.00;100518.25;6066847;23;20014;-94
2022/09/14 11:00:00;;;;;;;12.43;6.43;;;;;;;17.42;76.19;100508.97;6064725;23;20573;-95
2022/09/14 11:02:44;;;;;;;13.73;6.85;;;;;;;17.45;75.37;100516.75;6065835;23;20018;-93
2022/09/14 11:05:49;;;;;;;8.23;6.10;;;;;;;17.50;74.83;100511.91;6063462;23;20062;-92
2022/09/14 11:08:22;;;;;;;8.07;5.80;;;;;;;17.43;74.08;100508.84;5992623;23;20021;-93
2022/09/14 11:11:03;;;;;;;9.05;5.72;;;;;;;17.49;74.93;100512.91;6064238;23;20470;-92
2022/09/14 11:13:46;;;;;;;8.88;5.72;;;;;;;17.41;74.19;100508.09;6063794;23;20483;-91
2022/09/14 11:16:26;;;;;;;10.35;5.68;;;;;;;17.30;75.63;100516.06;6064249;23;20076;-92
2022/09/14 11:18:51;;;;;;;10.13;6.35;;;;;;;17.40;75.36;100511.75;6090177;23;20077;-91
2022/09/14 11:21:54;;;;;;;12.82;6.82;;;;;;;17.52;75.58;100515.31;6089484;23;20048;-92
2022/09/14 11:24:34;;;;;;;10.23;6.38;;;;;;;17.56;77.38;100511.47;6089488;23;20002;-91
2022/09/14 11:27:23;;;;;;;13.48;7.38;;;;;;;17.60;76.99;100518.28;6064081;23;20077;-91
2022/09/14 11:29:56;;;;;;;7.82;6.25;;;;;;;17.70;75.61;100505.94;6063623;23;20438;-92
2022/09/14 11:32:38;;;;;;;9.95;6.22;;;;;;;17.77;74.71;100496.53;6088203;23;20423;-92
2022/09/14 11:35:14;;;;;;;7.88;5.63;;;;;;;17.81;74.10;100500.66;6090038;23;20062;-92
2022/09/14 11:37:54;;;;;;;5.68;4.60;;;;;;;17.68;72.97;100493.66;6089558;23;20086;-92
2022/09/14 11:40:23;;;;;;;5.35;3.67;;;;;;;17.74;73.00;100498.56;6091370;23;20319;-92
2022/09/14 11:43:09;;;;;;;5.18;3.90;;;;;;;17.76;73.79;100501.97;6064138;23;20436;-91
2022/09/14 11:45:49;;;;;;;3.28;2.97;;;;;;;17.67;73.45;100498.13;6090097;23;20515;-92
2022/09/14 11:48:27;;;;;;;6.95;4.30;;;;;;;17.50;73.13;100502.06;6064402;23;20503;-91
2022/09/14 11:51:08;;;;;;;5.30;4.07;;;;;;;17.37;74.58;100500.44;6091576;23;20006;-92
2022/09/14 11:53:34;;;;;;;5.57;3.90;;;;;;;17.33;74.63;100489.09;6067210;23;20347;-91
2022/09/14 11:56:00;;;;;;;6.90;4.30;;;;;;;17.32;74.41;100492.75;6068036;23;20425;-92
2022/09/14 11:58:30;;;;;;;4.28;3.72;;;;;;;17.43;73.90;100498.13;6092758;23;20037;-92
2022/09/14 12:01:02;;;;;;;5.32;3.92;;;;;;;17.41;73.51;100494.75;6067562;23;20419;-92
2022/09/14 12:03:51;;;;;;;7.72;3.95;;;;;;;17.42;74.14;100501.78;6066495;23;20275;-92
2022/09/14 12:06:28;;;;;;;7.90;4.50;;;;;;;17.48;73.33;100509.34;6067170;23;20038;-92
2022/09/14 12:09:15;;;;;;;5.35;4.25;;;;;;;17.31;72.73;100497.25;6092996;23;20356;-93
2022/09/14 12:11:42;;;;;;;8.35;5.05;;;;;;;17.12;73.65;100490.69;6091271;23;20066;-92
2022/09/14 12:14:14;;;;;;;6.68;4.95;;;;;;;17.24;75.40;100497.81;6065313;23;20328;-92
2022/09/14 12:17:22;;;;;;;5.78;4.95;;;;;;;17.44;74.34;100499.88;6091866;23;20006;-91
2022/09/14 12:19:54;;;;;;;7.72;5.18;;;;;;;17.44;75.08;100491.84;6050366;23;20002;-92
2022/09/14 12:22:38;;;;;;;8.75;5.05;;;;;;;17.59;74.08;100485.34;6065121;23;20006;-91
2022/09/14 12:25:16;;;;;;;8.00;5.15;;;;;;;17.62;73.83;100486.94;6066124;23;20375;-92
2022/09/14 12:27:43;;;;;;;9.07;5.25;;;;;;;17.55;73.41;100491.03;6090125;23;20519;-91
2022/09/14 12:30:39;;;;;;;7.85;5.03;;;;;;;17.64;73.95;100500.19;6065960;23;20089;-91
2022/09/14 12:33:31;;;;;;;6.00;5.40;;;;;;;17.58;73.83;100497.03;6088203;23;20011;-92
2022/09/14 12:35:57;;;;;;;6.37;4.20;;;;;;;17.52;73.76;100500.13;6073613;23;20430;-92
2022/09/14 12:38:29;;;;;;;7.00;3.67;;;;;;;17.57;72.54;100499.78;6091418;23;20387;-92
2022/09/14 12:40:55;;;;;;;6.10;3.88;;;;;;;17.50;72.26;100501.22;6091423;23;20116;-92
2022/09/14 12:43:32;;;;;;;7.03;3.90;;;;;;;17.36;72.84;100502.25;6089397;23;20419;-92
2022/09/14 12:46:06;;;;;;;9.50;4.22;;;;;;;17.36;73.63;100498.72;6091841;23;20006;-91
2022/09/14 12:48:47;;;;;;;7.57;3.63;;;;;;;17.39;73.03;100493.13;6090463;23;20002;-91
2022/09/14 12:51:34;;;;;;;7.70;4.05;;;;;;;17.28;73.96;100494.78;6090192;23;20007;-91
2022/09/14 12:54:06;;;;;;;8.13;4.18;;;;;;;17.30;73.88;100490.22;6068187;23;20085;-93
2022/09/14 12:56:50;;;;;;;7.78;4.50;;;;;;;17.23;75.06;100485.41;6090389;23;20084;-93
2022/09/14 12:59:41;;;;;;;6.88;5.25;;;;;;;17.12;75.12;100482.69;6091142;23;20092;-92
2022/09/14 13:02:24;;;;;;;9.15;5.10;;;;;;;17.09;74.89;100473.06;6092087;23;20014;-92
2022/09/14 13:04:55;;;;;;;9.93;4.93;;;;;;;17.05;75.13;100467.09;6066019;23;20085;-93
2022/09/14 13:07:21;;;;;;;8.70;4.53;;;;;;;17.13;75.35;100460.34;6068026;23;20431;-93
2022/09/14 13:09:49;;;;;;;7.47;4.70;;;;;;;17.18;74.96;100464.38;6063890;23;20041;-92
2022/09/14 13:12:40;;;;;;;6.82;5.10;;;;;;;17.12;74.62;100453.31;6065912;23;20006;-93
2022/09/14 13:15:16;;;;;;;8.93;5.00;;;;;;;17.21;74.67;100449.97;6063582;23;20054;-93
2022/09/14 13:18:05;;;;;;;6.95;4.60;;;;;;;17.39;74.01;100450.38;6064301;23;20429;-93
2022/09/14 13:20:34;;;;;;;11.70;6.00;;;;;;;17.41;75.24;100449.31;6093211;23;20042;-93
2022/09/14 13:23:00;;;;;;;8.85;4.93;;;;;;;17.59;74.68;100457.78;6092273;23;20016;-93
2022/09/14 13:25:33;;;;;;;8.05;5.20;;;;;;;17.64;74.71;100454.75;6092171;23;20033;-92
2022/09/14 13:28:11;;;;;;;6.55;4.80;;;;;;;17.54;73.55;100446.56;6064648;23;20442;-92
2022/09/14 13:30:37;;;;;;;6.80;5.07;;;;;;;17.50;75.23;100450.44;6065576;23;20505;-93
2022/09/14 13:33:03;;;;;;;10.18;4.63;;;;;;;17.36;74.60;100450.63;6065684;23;20003;-94
2022/09/14 13:35:38;;;;;;;7.28;4.82;;;;;;;17.30;75.40;100457.28;6067559;23;20012;-93
2022/09/14 13:38:12;;;;;;;8.15;5.35;;;;;;;17.43;75.97;100471.41;6092251;23;20010;-91
2022/09/14 13:40:38;;;;;;;9.80;4.85;;;;;;;17.42;75.39;100456.34;6091903;23;20011;-92
2022/09/14 13:43:04;;;;;;;6.22;5.03;;;;;;;17.45;75.16;100465.97;6092183;23;20429;-91
2022/09/14 13:45:30;;;;;;;8.27;4.38;;;;;;;17.47;74.45;100461.34;6066014;23;20014;-92
2022/09/14 13:47:55;;;;;;;9.18;4.45;;;;;;;17.48;74.76;100461.22;6066444;23;20013;-94
2022/09/14 13:50:24;;;;;;;5.28;4.05;;;;;;;17.46;74.84;100457.84;6091410;23;20034;-93
2022/09/14 13:52:50;;;;;;;6.60;4.53;;;;;;;17.53;74.21;100464.44;6091479;23;20006;-93
2022/09/14 13:55:21;;;;;;;6.03;4.10;;;;;;;17.57;74.37;100467.72;6065796;23;20049;-94
2022/09/14 13:58:08;;;;;;;8.80;4.50;;;;;;;17.62;74.24;100459.34;6064960;23;20006;-93
2022/09/14 14:00:46;;;;;;;5.72;4.45;;;;;;;17.59;73.58;100450.59;6064512;23;20030;-92
2022/09/14 14:03:23;;;;;;;6.60;4.60;;;;;;;17.59;73.67;100452.44;6090999;23;20002;-92
2022/09/14 14:05:49;;;;;;;6.22;5.25;;;;;;;17.60;73.42;100449.63;6064879;23;20015;-93
2022/09/14 14:08:26;;;;;;;8.35;5.90;;;;;;;17.64;74.09;100438.72;6090473;23;20008;-93
2022/09/14 14:10:53;;;;;;;8.55;5.90;;;;;;;17.66;73.90;100442.97;6063899;23;20062;-92
2022/09/14 14:13:44;;;;;;;9.13;5.88;;;;;;;17.77;73.30;100435.03;6063777;23;20018;-93
2022/09/14 14:16:22;;;;;;;7.22;5.32;;;;;;;17.75;73.73;100442.28;6057932;23;20018;-93
2022/09/14 14:18:54;;;;;;;8.40;4.63;;;;;;;17.62;73.77;100425.44;6065669;23;20009;-93
2022/09/14 14:21:23;;;;;;;9.63;5.28;;;;;;;17.71;72.92;100434.59;6093021;23;20017;-93
2022/09/14 14:24:12;;;;;;;8.50;5.18;;;;;;;17.64;73.82;100428.03;6090591;23;20018;-92
2022/09/14 14:26:38;;;;;;;6.68;4.32;;;;;;;17.65;73.57;100424.38;6091450;23;20217;-93
2022/09/14 14:29:08;;;;;;;5.50;4.60;;;;;;;17.64;72.96;100425.34;6064595;23;20462;-93
2022/09/14 14:31:34;;;;;;;7.40;4.85;;;;;;;17.64;73.35;100420.84;6065730;23;20480;-93
2022/09/14 14:34:00;;;;;;;5.20;3.97;;;;;;;17.60;73.15;100422.03;6065397;23;20059;-95
2022/09/14 14:36:25;;;;;;;8.18;4.15;;;;;;;17.66;72.90;100437.59;6066088;23;20022;-95
2022/09/14 14:38:51;;;;;;;4.43;3.40;;;;;;;17.58;72.73;100435.53;6065130;23;20013;-93
2022/09/14 14:41:19;;;;;;;6.35;3.78;;;;;;;17.45;73.44;100437.44;6065361;23;20416;-93
2022/09/14 14:43:48;;;;;;;6.05;4.30;;;;;;;17.34;73.97;100416.00;6065188;23;20053;-93